sensor_id;sensor_type;location;lat;lon;timestamp;P1;durP1;ratioP1;P2;durP2;ratioP2
50012;SDS011;35901;48.694;9.476;2023-07-22T00:00:47;9.20;;;4.97;;
50012;SDS011;35901;48.694;9.476;2023-07-22T00:03:13;20.87;;;5.77;;
50012;SDS011;35901;48.694;9.476;2023-07-22T00:05:39;6.03;;;4.47;;
50012;SDS011;35901;48.694;9.476;2023-07-22T00:08:05;10.30;;;5.30;;
50012;SDS011;35901;48.694;9.476;2023-07-22T00:10:31;5.43;;;4.90;;
50012;SDS011;35901;48.694;9.476;2023-07-22T00:12:56;21.67;;;5.73;;
50012;SDS011;35901;48.694;9.476;2023-07-22T00:15:22;30.87;;;5.23;;
50012;SDS011;35901;48.694;9.476;2023-07-22T00:17:49;9.90;;;4.50;;
50012;SDS011;35901;48.694;9.476;2023-07-22T00:20:15;8.70;;;4.63;;
50012;SDS011;35901;48.694;9.476;2023-07-22T00:22:41;14.77;;;4.90;;
50012;SDS011;35901;48.694;9.476;2023-07-22T00:25:09;21.70;;;5.33;;
50012;SDS011;35901;48.694;9.476;2023-07-22T00:27:39;4.03;;;3.63;;
50012;SDS011;35901;48.694;9.476;2023-07-22T00:30:07;7.43;;;4.37;;
50012;SDS011;35901;48.694;9.476;2023-07-22T00:32:34;19.97;;;5.77;;
50012;SDS011;35901;48.694;9.476;2023-07-22T00:35:02;9.07;;;4.77;;
50012;SDS011;35901;48.694;9.476;2023-07-22T00:37:31;8.40;;;4.60;;
50012;SDS011;35901;48.694;9.476;2023-07-22T00:39:58;4.60;;;4.20;;
50012;SDS011;35901;48.694;9.476;2023-07-22T00:42:24;7.47;;;4.43;;
50012;SDS011;35901;48.694;9.476;2023-07-22T00:44:49;4.30;;;3.80;;
50012;SDS011;35901;48.694;9.476;2023-07-22T00:47:15;6.03;;;4.20;;
50012;SDS011;35901;48.694;9.476;2023-07-22T00:49:42;6.07;;;4.90;;
50012;SDS011;35901;48.694;9.476;2023-07-22T00:52:09;37.73;;;7.47;;
50012;SDS011;35901;48.694;9.476;2023-07-22T00:54:34;15.83;;;4.63;;
50012;SDS011;35901;48.694;9.476;2023-07-22T00:57:00;16.97;;;5.30;;
50012;SDS011;35901;48.694;9.476;2023-07-22T00:59:26;12.50;;;5.30;;
50012;SDS011;35901;48.694;9.476;2023-07-22T01:01:53;5.23;;;4.83;;
50012;SDS011;35901;48.694;9.476;2023-07-22T01:04:19;8.03;;;6.17;;
50012;SDS011;35901;48.694;9.476;2023-07-22T01:06:47;10.47;;;6.33;;
50012;SDS011;35901;48.694;9.476;2023-07-22T01:09:14;8.97;;;7.33;;
50012;SDS011;35901;48.694;9.476;2023-07-22T01:11:39;18.40;;;7.10;;
50012;SDS011;35901;48.694;9.476;2023-07-22T01:14:05;27.93;;;8.00;;
50012;SDS011;35901;48.694;9.476;2023-07-22T01:16:33;13.83;;;7.17;;
50012;SDS011;35901;48.694;9.476;2023-07-22T01:18:59;7.10;;;6.40;;
50012;SDS011;35901;48.694;9.476;2023-07-22T01:21:25;7.33;;;6.63;;
50012;SDS011;35901;48.694;9.476;2023-07-22T01:23:53;6.10;;;5.60;;
50012;SDS011;35901;48.694;9.476;2023-07-22T01:26:19;5.97;;;5.47;;
50012;SDS011;35901;48.694;9.476;2023-07-22T01:28:45;5.73;;;5.23;;
50012;SDS011;35901;48.694;9.476;2023-07-22T01:31:11;6.10;;;5.50;;
50012;SDS011;35901;48.694;9.476;2023-07-22T01:33:37;7.73;;;5.43;;
50012;SDS011;35901;48.694;9.476;2023-07-22T01:36:03;7.67;;;5.90;;
50012;SDS011;35901;48.694;9.476;2023-07-22T01:38:29;6.00;;;4.70;;
50012;SDS011;35901;48.694;9.476;2023-07-22T01:40:56;8.63;;;6.30;;
50012;SDS011;35901;48.694;9.476;2023-07-22T01:43:22;8.20;;;5.70;;
50012;SDS011;35901;48.694;9.476;2023-07-22T01:45:47;6.00;;;5.50;;
50012;SDS011;35901;48.694;9.476;2023-07-22T01:48:13;5.83;;;5.13;;
50012;SDS011;35901;48.694;9.476;2023-07-22T01:50:39;5.77;;;5.27;;
50012;SDS011;35901;48.694;9.476;2023-07-22T01:53:05;5.83;;;5.23;;
50012;SDS011;35901;48.694;9.476;2023-07-22T01:55:31;7.70;;;6.60;;
50012;SDS011;35901;48.694;9.476;2023-07-22T01:58:00;6.87;;;6.10;;
50012;SDS011;35901;48.694;9.476;2023-07-22T02:00:26;6.73;;;6.10;;
50012;SDS011;35901;48.694;9.476;2023-07-22T02:02:52;7.47;;;6.57;;
50012;SDS011;35901;48.694;9.476;2023-07-22T02:05:17;6.13;;;5.53;;
50012;SDS011;35901;48.694;9.476;2023-07-22T02:07:43;6.63;;;6.03;;
50012;SDS011;35901;48.694;9.476;2023-07-22T02:10:09;7.33;;;5.53;;
50012;SDS011;35901;48.694;9.476;2023-07-22T02:12:35;8.20;;;5.27;;
50012;SDS011;35901;48.694;9.476;2023-07-22T02:15:01;6.80;;;5.37;;
50012;SDS011;35901;48.694;9.476;2023-07-22T02:17:27;10.10;;;6.23;;
50012;SDS011;35901;48.694;9.476;2023-07-22T02:19:53;13.20;;;7.10;;
50012;SDS011;35901;48.694;9.476;2023-07-22T02:22:20;8.97;;;6.70;;
50012;SDS011;35901;48.694;9.476;2023-07-22T02:24:45;7.63;;;5.53;;
50012;SDS011;35901;48.694;9.476;2023-07-22T02:27:11;9.23;;;6.77;;
50012;SDS011;35901;48.694;9.476;2023-07-22T02:29:37;6.13;;;5.60;;
50012;SDS011;35901;48.694;9.476;2023-07-22T02:32:02;5.70;;;5.20;;
50012;SDS011;35901;48.694;9.476;2023-07-22T02:34:28;9.03;;;6.07;;
50012;SDS011;35901;48.694;9.476;2023-07-22T02:36:54;6.63;;;5.90;;
50012;SDS011;35901;48.694;9.476;2023-07-22T02:39:19;6.40;;;5.80;;
50012;SDS011;35901;48.694;9.476;2023-07-22T02:41:45;5.97;;;5.30;;
50012;SDS011;35901;48.694;9.476;2023-07-22T02:44:11;6.20;;;5.63;;
50012;SDS011;35901;48.694;9.476;2023-07-22T02:46:37;5.90;;;5.40;;
50012;SDS011;35901;48.694;9.476;2023-07-22T02:49:03;5.97;;;5.37;;
50012;SDS011;35901;48.694;9.476;2023-07-22T02:51:29;7.07;;;5.47;;
50012;SDS011;35901;48.694;9.476;2023-07-22T02:53:54;5.87;;;5.23;;
50012;SDS011;35901;48.694;9.476;2023-07-22T02:56:20;6.07;;;5.43;;
50012;SDS011;35901;48.694;9.476;2023-07-22T02:58:45;6.20;;;5.30;;
50012;SDS011;35901;48.694;9.476;2023-07-22T03:01:11;6.83;;;4.93;;
50012;SDS011;35901;48.694;9.476;2023-07-22T03:03:37;5.50;;;5.00;;
50012;SDS011;35901;48.694;9.476;2023-07-22T03:06:05;5.70;;;4.93;;
50012;SDS011;35901;48.694;9.476;2023-07-22T03:08:30;5.93;;;5.23;;
50012;SDS011;35901;48.694;9.476;2023-07-22T03:10:56;7.07;;;5.67;;
50012;SDS011;35901;48.694;9.476;2023-07-22T03:13:21;24.53;;;7.30;;
50012;SDS011;35901;48.694;9.476;2023-07-22T03:15:47;9.80;;;5.93;;
50012;SDS011;35901;48.694;9.476;2023-07-22T03:18:13;15.97;;;6.97;;
50012;SDS011;35901;48.694;9.476;2023-07-22T03:20:39;6.47;;;5.57;;
50012;SDS011;35901;48.694;9.476;2023-07-22T03:23:05;5.67;;;5.17;;
50012;SDS011;35901;48.694;9.476;2023-07-22T03:25:31;6.47;;;5.23;;
50012;SDS011;35901;48.694;9.476;2023-07-22T03:28:04;6.23;;;5.63;;
50012;SDS011;35901;48.694;9.476;2023-07-22T03:30:32;6.00;;;5.40;;
50012;SDS011;35901;48.694;9.476;2023-07-22T03:32:58;6.07;;;5.57;;
50012;SDS011;35901;48.694;9.476;2023-07-22T03:35:25;6.40;;;5.80;;
50012;SDS011;35901;48.694;9.476;2023-07-22T03:37:51;6.70;;;6.00;;
50012;SDS011;35901;48.694;9.476;2023-07-22T03:40:17;5.70;;;5.20;;
50012;SDS011;35901;48.694;9.476;2023-07-22T03:42:47;7.07;;;5.97;;
50012;SDS011;35901;48.694;9.476;2023-07-22T03:45:13;7.03;;;6.23;;
50012;SDS011;35901;48.694;9.476;2023-07-22T03:47:39;6.50;;;5.83;;
50012;SDS011;35901;48.694;9.476;2023-07-22T03:50:05;6.73;;;6.13;;
50012;SDS011;35901;48.694;9.476;2023-07-22T03:52:31;6.43;;;5.83;;
50012;SDS011;35901;48.694;9.476;2023-07-22T03:54:57;6.73;;;6.03;;
50012;SDS011;35901;48.694;9.476;2023-07-22T03:57:26;7.67;;;5.80;;
50012;SDS011;35901;48.694;9.476;2023-07-22T03:59:55;8.27;;;6.30;;
50012;SDS011;35901;48.694;9.476;2023-07-22T04:02:21;7.20;;;6.03;;
50012;SDS011;35901;48.694;9.476;2023-07-22T04:04:47;8.07;;;6.70;;
50012;SDS011;35901;48.694;9.476;2023-07-22T04:07:13;6.73;;;6.13;;
50012;SDS011;35901;48.694;9.476;2023-07-22T04:09:39;6.47;;;5.87;;
50012;SDS011;35901;48.694;9.476;2023-07-22T04:12:05;6.20;;;5.60;;
50012;SDS011;35901;48.694;9.476;2023-07-22T04:14:32;6.23;;;5.70;;
50012;SDS011;35901;48.694;9.476;2023-07-22T04:16:58;5.73;;;5.07;;
50012;SDS011;35901;48.694;9.476;2023-07-22T04:19:23;6.10;;;5.50;;
50012;SDS011;35901;48.694;9.476;2023-07-22T04:21:49;6.30;;;5.67;;
50012;SDS011;35901;48.694;9.476;2023-07-22T04:24:14;6.47;;;5.17;;
50012;SDS011;35901;48.694;9.476;2023-07-22T04:26:43;5.90;;;5.30;;
50012;SDS011;35901;48.694;9.476;2023-07-22T04:29:10;5.77;;;5.23;;
50012;SDS011;35901;48.694;9.476;2023-07-22T04:31:37;6.93;;;5.90;;
50012;SDS011;35901;48.694;9.476;2023-07-22T04:34:03;5.73;;;5.17;;
50012;SDS011;35901;48.694;9.476;2023-07-22T04:36:30;8.70;;;4.90;;
50012;SDS011;35901;48.694;9.476;2023-07-22T04:38:56;6.83;;;6.13;;
50012;SDS011;35901;48.694;9.476;2023-07-22T04:41:22;7.97;;;5.87;;
50012;SDS011;35901;48.694;9.476;2023-07-22T04:43:47;8.70;;;4.70;;
50012;SDS011;35901;48.694;9.476;2023-07-22T04:46:15;5.03;;;4.53;;
50012;SDS011;35901;48.694;9.476;2023-07-22T04:48:41;5.77;;;5.17;;
50012;SDS011;35901;48.694;9.476;2023-07-22T04:51:07;4.70;;;4.30;;
50012;SDS011;35901;48.694;9.476;2023-07-22T04:53:32;4.30;;;3.83;;
50012;SDS011;35901;48.694;9.476;2023-07-22T04:55:58;4.37;;;4.07;;
50012;SDS011;35901;48.694;9.476;2023-07-22T04:58:24;5.60;;;4.47;;
50012;SDS011;35901;48.694;9.476;2023-07-22T05:00:50;4.73;;;4.33;;
50012;SDS011;35901;48.694;9.476;2023-07-22T05:03:16;4.83;;;4.43;;
50012;SDS011;35901;48.694;9.476;2023-07-22T05:05:43;4.50;;;4.10;;
50012;SDS011;35901;48.694;9.476;2023-07-22T05:08:09;6.10;;;5.40;;
50012;SDS011;35901;48.694;9.476;2023-07-22T05:10:36;5.20;;;4.40;;
50012;SDS011;35901;48.694;9.476;2023-07-22T05:13:03;6.00;;;4.23;;
50012;SDS011;35901;48.694;9.476;2023-07-22T05:15:28;5.03;;;4.53;;
50012;SDS011;35901;48.694;9.476;2023-07-22T05:17:54;4.50;;;4.10;;
50012;SDS011;35901;48.694;9.476;2023-07-22T05:20:20;3.97;;;3.67;;
50012;SDS011;35901;48.694;9.476;2023-07-22T05:22:45;5.50;;;5.00;;
50012;SDS011;35901;48.694;9.476;2023-07-22T05:25:11;4.73;;;4.27;;
50012;SDS011;35901;48.694;9.476;2023-07-22T05:27:37;5.00;;;4.60;;
50012;SDS011;35901;48.694;9.476;2023-07-22T05:30:03;4.27;;;3.87;;
50012;SDS011;35901;48.694;9.476;2023-07-22T05:32:29;4.00;;;3.63;;
50012;SDS011;35901;48.694;9.476;2023-07-22T05:34:55;3.57;;;3.37;;
50012;SDS011;35901;48.694;9.476;2023-07-22T05:37:21;3.77;;;3.53;;
50012;SDS011;35901;48.694;9.476;2023-07-22T05:39:48;4.40;;;3.93;;
50012;SDS011;35901;48.694;9.476;2023-07-22T05:42:13;4.83;;;3.70;;
50012;SDS011;35901;48.694;9.476;2023-07-22T05:44:39;4.03;;;3.63;;
50012;SDS011;35901;48.694;9.476;2023-07-22T05:47:05;4.00;;;3.70;;
50012;SDS011;35901;48.694;9.476;2023-07-22T05:49:30;4.70;;;3.70;;
50012;SDS011;35901;48.694;9.476;2023-07-22T05:51:56;3.97;;;3.67;;
50012;SDS011;35901;48.694;9.476;2023-07-22T05:54:22;3.60;;;3.10;;
50012;SDS011;35901;48.694;9.476;2023-07-22T05:56:47;4.20;;;3.20;;
50012;SDS011;35901;48.694;9.476;2023-07-22T05:59:13;3.60;;;3.20;;
50012;SDS011;35901;48.694;9.476;2023-07-22T06:01:39;3.43;;;3.23;;
50012;SDS011;35901;48.694;9.476;2023-07-22T06:04:05;3.93;;;3.50;;
50012;SDS011;35901;48.694;9.476;2023-07-22T06:06:31;4.67;;;3.40;;
50012;SDS011;35901;48.694;9.476;2023-07-22T06:08:57;3.63;;;3.33;;
50012;SDS011;35901;48.694;9.476;2023-07-22T06:11:22;3.70;;;3.40;;
50012;SDS011;35901;48.694;9.476;2023-07-22T06:13:48;3.67;;;3.37;;
50012;SDS011;35901;48.694;9.476;2023-07-22T06:16:14;3.50;;;3.30;;
50012;SDS011;35901;48.694;9.476;2023-07-22T06:18:40;2.93;;;2.73;;
50012;SDS011;35901;48.694;9.476;2023-07-22T06:21:05;3.30;;;2.90;;
50012;SDS011;35901;48.694;9.476;2023-07-22T06:23:31;3.53;;;3.10;;
50012;SDS011;35901;48.694;9.476;2023-07-22T06:25:57;3.90;;;2.97;;
50012;SDS011;35901;48.694;9.476;2023-07-22T06:28:22;4.30;;;2.93;;
50012;SDS011;35901;48.694;9.476;2023-07-22T06:30:48;3.67;;;2.90;;
50012;SDS011;35901;48.694;9.476;2023-07-22T06:33:14;3.00;;;2.80;;
50012;SDS011;35901;48.694;9.476;2023-07-22T06:35:39;3.10;;;2.80;;
50012;SDS011;35901;48.694;9.476;2023-07-22T06:38:05;3.00;;;2.70;;
50012;SDS011;35901;48.694;9.476;2023-07-22T06:40:31;3.30;;;2.93;;
50012;SDS011;35901;48.694;9.476;2023-07-22T06:42:56;3.27;;;2.97;;
50012;SDS011;35901;48.694;9.476;2023-07-22T06:45:22;3.20;;;2.90;;
50012;SDS011;35901;48.694;9.476;2023-07-22T06:47:47;2.97;;;2.70;;
50012;SDS011;35901;48.694;9.476;2023-07-22T06:50:13;2.83;;;2.63;;
50012;SDS011;35901;48.694;9.476;2023-07-22T06:52:39;3.03;;;2.73;;
50012;SDS011;35901;48.694;9.476;2023-07-22T06:55:04;2.53;;;2.33;;
50012;SDS011;35901;48.694;9.476;2023-07-22T06:57:32;2.50;;;2.30;;
50012;SDS011;35901;48.694;9.476;2023-07-22T06:59:58;2.77;;;2.57;;
50012;SDS011;35901;48.694;9.476;2023-07-22T07:02:24;4.60;;;2.67;;
50012;SDS011;35901;48.694;9.476;2023-07-22T07:04:50;2.30;;;2.10;;
50012;SDS011;35901;48.694;9.476;2023-07-22T07:07:16;2.87;;;2.67;;
50012;SDS011;35901;48.694;9.476;2023-07-22T07:09:42;2.87;;;2.67;;
50012;SDS011;35901;48.694;9.476;2023-07-22T07:12:08;2.43;;;2.23;;
50012;SDS011;35901;48.694;9.476;2023-07-22T07:14:34;2.60;;;2.40;;
50012;SDS011;35901;48.694;9.476;2023-07-22T07:17:00;2.60;;;2.40;;
50012;SDS011;35901;48.694;9.476;2023-07-22T07:19:26;2.67;;;2.30;;
50012;SDS011;35901;48.694;9.476;2023-07-22T07:21:52;2.67;;;2.47;;
50012;SDS011;35901;48.694;9.476;2023-07-22T07:24:18;2.73;;;2.53;;
50012;SDS011;35901;48.694;9.476;2023-07-22T07:26:44;2.23;;;2.03;;
50012;SDS011;35901;48.694;9.476;2023-07-22T07:29:10;2.87;;;2.57;;
50012;SDS011;35901;48.694;9.476;2023-07-22T07:31:36;2.57;;;2.37;;
50012;SDS011;35901;48.694;9.476;2023-07-22T07:34:02;2.90;;;2.27;;
50012;SDS011;35901;48.694;9.476;2023-07-22T07:36:28;2.30;;;2.10;;
50012;SDS011;35901;48.694;9.476;2023-07-22T07:38:54;2.60;;;2.40;;
50012;SDS011;35901;48.694;9.476;2023-07-22T07:41:20;2.97;;;2.40;;
50012;SDS011;35901;48.694;9.476;2023-07-22T07:43:46;2.63;;;2.40;;
50012;SDS011;35901;48.694;9.476;2023-07-22T07:48:50;2.97;;;2.43;;
50012;SDS011;35901;48.694;9.476;2023-07-22T07:51:21;2.17;;;2.03;;
50012;SDS011;35901;48.694;9.476;2023-07-22T07:53:49;2.77;;;2.17;;
50012;SDS011;35901;48.694;9.476;2023-07-22T07:56:16;2.50;;;2.30;;
50012;SDS011;35901;48.694;9.476;2023-07-22T07:58:43;2.60;;;2.30;;
50012;SDS011;35901;48.694;9.476;2023-07-22T08:01:10;2.70;;;2.50;;
50012;SDS011;35901;48.694;9.476;2023-07-22T08:03:37;2.77;;;2.07;;
50012;SDS011;35901;48.694;9.476;2023-07-22T08:06:03;2.27;;;2.07;;
50012;SDS011;35901;48.694;9.476;2023-07-22T08:08:29;2.13;;;2.00;;
50012;SDS011;35901;48.694;9.476;2023-07-22T08:10:59;2.50;;;2.30;;
50012;SDS011;35901;48.694;9.476;2023-07-22T08:13:29;2.40;;;2.20;;
50012;SDS011;35901;48.694;9.476;2023-07-22T08:16:06;2.00;;;1.90;;
50012;SDS011;35901;48.694;9.476;2023-07-22T08:18:34;3.50;;;2.00;;
50012;SDS011;35901;48.694;9.476;2023-07-22T08:21:00;2.00;;;1.80;;
50012;SDS011;35901;48.694;9.476;2023-07-22T08:23:28;3.07;;;1.97;;
50012;SDS011;35901;48.694;9.476;2023-07-22T08:25:54;1.97;;;1.87;;
50012;SDS011;35901;48.694;9.476;2023-07-22T08:28:19;2.17;;;1.97;;
50012;SDS011;35901;48.694;9.476;2023-07-22T08:30:47;2.00;;;1.90;;
50012;SDS011;35901;48.694;9.476;2023-07-22T08:33:14;2.00;;;1.90;;
50012;SDS011;35901;48.694;9.476;2023-07-22T08:35:41;2.20;;;2.00;;
50012;SDS011;35901;48.694;9.476;2023-07-22T08:38:07;2.70;;;2.27;;
50012;SDS011;35901;48.694;9.476;2023-07-22T08:40:34;2.10;;;2.00;;
50012;SDS011;35901;48.694;9.476;2023-07-22T08:43:01;2.20;;;2.10;;
50012;SDS011;35901;48.694;9.476;2023-07-22T08:45:29;1.90;;;1.80;;
50012;SDS011;35901;48.694;9.476;2023-07-22T08:47:58;2.03;;;1.93;;
50012;SDS011;35901;48.694;9.476;2023-07-22T08:50:26;2.53;;;1.83;;
50012;SDS011;35901;48.694;9.476;2023-07-22T08:52:55;3.10;;;2.10;;
50012;SDS011;35901;48.694;9.476;2023-07-22T08:55:23;2.63;;;1.90;;
50012;SDS011;35901;48.694;9.476;2023-07-22T08:57:49;2.57;;;1.90;;
50012;SDS011;35901;48.694;9.476;2023-07-22T09:00:16;3.20;;;1.77;;
50012;SDS011;35901;48.694;9.476;2023-07-22T09:02:42;2.20;;;1.83;;
50012;SDS011;35901;48.694;9.476;2023-07-22T09:05:08;2.23;;;1.73;;
50012;SDS011;35901;48.694;9.476;2023-07-22T09:07:37;1.80;;;1.67;;
50012;SDS011;35901;48.694;9.476;2023-07-22T09:10:06;2.23;;;2.00;;
50012;SDS011;35901;48.694;9.476;2023-07-22T09:12:34;1.93;;;1.80;;
50012;SDS011;35901;48.694;9.476;2023-07-22T09:15:14;1.80;;;1.70;;
50012;SDS011;35901;48.694;9.476;2023-07-22T09:17:40;1.83;;;1.70;;
50012;SDS011;35901;48.694;9.476;2023-07-22T09:20:07;2.20;;;2.00;;
50012;SDS011;35901;48.694;9.476;2023-07-22T09:22:33;2.20;;;2.00;;
50012;SDS011;35901;48.694;9.476;2023-07-22T09:25:12;1.87;;;1.77;;
50012;SDS011;35901;48.694;9.476;2023-07-22T09:27:42;1.97;;;1.87;;
50012;SDS011;35901;48.694;9.476;2023-07-22T09:30:29;1.77;;;1.63;;
50012;SDS011;35901;48.694;9.476;2023-07-22T09:33:06;2.00;;;1.90;;
50012;SDS011;35901;48.694;9.476;2023-07-22T09:35:45;2.53;;;2.00;;
50012;SDS011;35901;48.694;9.476;2023-07-22T09:38:12;2.37;;;1.97;;
50012;SDS011;35901;48.694;9.476;2023-07-22T09:40:40;2.23;;;1.90;;
50012;SDS011;35901;48.694;9.476;2023-07-22T09:43:09;1.90;;;1.80;;
50012;SDS011;35901;48.694;9.476;2023-07-22T09:45:35;2.67;;;1.90;;
50012;SDS011;35901;48.694;9.476;2023-07-22T09:48:03;2.03;;;1.80;;
50012;SDS011;35901;48.694;9.476;2023-07-22T09:50:29;1.93;;;1.70;;
50012;SDS011;35901;48.694;9.476;2023-07-22T09:52:58;2.07;;;1.80;;
50012;SDS011;35901;48.694;9.476;2023-07-22T09:55:25;2.13;;;1.93;;
50012;SDS011;35901;48.694;9.476;2023-07-22T09:57:54;1.80;;;1.70;;
50012;SDS011;35901;48.694;9.476;2023-07-22T10:00:23;2.10;;;1.53;;
50012;SDS011;35901;48.694;9.476;2023-07-22T10:02:51;2.20;;;1.90;;
50012;SDS011;35901;48.694;9.476;2023-07-22T10:05:20;1.80;;;1.70;;
50012;SDS011;35901;48.694;9.476;2023-07-22T10:07:51;2.17;;;1.67;;
50012;SDS011;35901;48.694;9.476;2023-07-22T10:10:18;1.63;;;1.53;;
50012;SDS011;35901;48.694;9.476;2023-07-22T10:12:46;1.97;;;1.87;;
50012;SDS011;35901;48.694;9.476;2023-07-22T10:15:12;1.87;;;1.77;;
50012;SDS011;35901;48.694;9.476;2023-07-22T10:17:40;2.53;;;1.90;;
50012;SDS011;35901;48.694;9.476;2023-07-22T10:20:07;2.37;;;1.83;;
50012;SDS011;35901;48.694;9.476;2023-07-22T10:22:35;1.83;;;1.73;;
50012;SDS011;35901;48.694;9.476;2023-07-22T10:25:05;2.00;;;1.90;;
50012;SDS011;35901;48.694;9.476;2023-07-22T10:27:32;2.03;;;1.93;;
50012;SDS011;35901;48.694;9.476;2023-07-22T10:29:59;2.23;;;1.90;;
50012;SDS011;35901;48.694;9.476;2023-07-22T10:32:31;1.80;;;1.70;;
50012;SDS011;35901;48.694;9.476;2023-07-22T10:35:01;1.97;;;1.87;;
50012;SDS011;35901;48.694;9.476;2023-07-22T10:37:32;1.80;;;1.70;;
50012;SDS011;35901;48.694;9.476;2023-07-22T10:45:29;1.97;;;1.77;;
50012;SDS011;35901;48.694;9.476;2023-07-22T10:48:15;2.27;;;1.83;;
50012;SDS011;35901;48.694;9.476;2023-07-22T10:53:12;1.80;;;1.70;;
50012;SDS011;35901;48.694;9.476;2023-07-22T10:58:31;2.20;;;2.00;;
50012;SDS011;35901;48.694;9.476;2023-07-22T11:09:53;1.93;;;1.70;;
50012;SDS011;35901;48.694;9.476;2023-07-22T11:12:09;2.37;;;1.73;;
50012;SDS011;35901;48.694;9.476;2023-07-22T11:14:52;1.80;;;1.70;;
50012;SDS011;35901;48.694;9.476;2023-07-22T11:17:31;2.67;;;1.80;;
50012;SDS011;35901;48.694;9.476;2023-07-22T11:19:58;1.77;;;1.67;;
50012;SDS011;35901;48.694;9.476;2023-07-22T11:22:25;2.37;;;1.80;;
50012;SDS011;35901;48.694;9.476;2023-07-22T11:24:52;1.80;;;1.70;;
50012;SDS011;35901;48.694;9.476;2023-07-22T11:27:17;2.63;;;1.93;;
50012;SDS011;35901;48.694;9.476;2023-07-22T11:29:43;1.87;;;1.77;;
50012;SDS011;35901;48.694;9.476;2023-07-22T11:32:17;2.30;;;1.90;;
50012;SDS011;35901;48.694;9.476;2023-07-22T11:34:47;2.93;;;2.20;;
50012;SDS011;35901;48.694;9.476;2023-07-22T11:37:13;1.70;;;1.60;;
50012;SDS011;35901;48.694;9.476;2023-07-22T11:39:40;1.90;;;1.70;;
50012;SDS011;35901;48.694;9.476;2023-07-22T11:42:07;1.57;;;1.47;;
50012;SDS011;35901;48.694;9.476;2023-07-22T11:44:33;2.47;;;2.00;;
50012;SDS011;35901;48.694;9.476;2023-07-22T11:49:39;2.30;;;2.10;;
50012;SDS011;35901;48.694;9.476;2023-07-22T11:52:07;2.23;;;2.00;;
50012;SDS011;35901;48.694;9.476;2023-07-22T11:54:35;3.63;;;2.10;;
50012;SDS011;35901;48.694;9.476;2023-07-22T11:59:44;2.17;;;2.07;;
50012;SDS011;35901;48.694;9.476;2023-07-22T12:02:17;2.40;;;2.00;;
50012;SDS011;35901;48.694;9.476;2023-07-22T12:05:02;1.80;;;1.70;;
50012;SDS011;35901;48.694;9.476;2023-07-22T12:07:33;2.03;;;1.80;;
50012;SDS011;35901;48.694;9.476;2023-07-22T12:10:00;1.97;;;1.80;;
50012;SDS011;35901;48.694;9.476;2023-07-22T12:12:39;1.90;;;1.80;;
50012;SDS011;35901;48.694;9.476;2023-07-22T12:15:20;2.00;;;1.80;;
50012;SDS011;35901;48.694;9.476;2023-07-22T12:17:52;2.33;;;2.00;;
50012;SDS011;35901;48.694;9.476;2023-07-22T12:20:19;2.20;;;2.10;;
50012;SDS011;35901;48.694;9.476;2023-07-22T12:22:52;2.10;;;2.00;;
50012;SDS011;35901;48.694;9.476;2023-07-22T12:25:18;2.23;;;2.07;;
50012;SDS011;35901;48.694;9.476;2023-07-22T12:27:44;2.10;;;2.00;;
50012;SDS011;35901;48.694;9.476;2023-07-22T12:30:10;2.20;;;2.00;;
50012;SDS011;35901;48.694;9.476;2023-07-22T12:32:39;2.00;;;1.90;;
50012;SDS011;35901;48.694;9.476;2023-07-22T12:35:05;3.33;;;2.00;;
50012;SDS011;35901;48.694;9.476;2023-07-22T12:37:31;3.43;;;2.43;;
50012;SDS011;35901;48.694;9.476;2023-07-22T12:39:57;2.87;;;2.00;;
50012;SDS011;35901;48.694;9.476;2023-07-22T12:42:23;2.60;;;2.00;;
50012;SDS011;35901;48.694;9.476;2023-07-22T12:44:48;3.47;;;2.47;;
50012;SDS011;35901;48.694;9.476;2023-07-22T12:47:14;2.30;;;2.10;;
50012;SDS011;35901;48.694;9.476;2023-07-22T12:49:40;2.80;;;2.27;;
50012;SDS011;35901;48.694;9.476;2023-07-22T12:52:06;2.77;;;2.20;;
50012;SDS011;35901;48.694;9.476;2023-07-22T12:54:37;2.50;;;2.30;;
50012;SDS011;35901;48.694;9.476;2023-07-22T12:57:03;2.77;;;2.20;;
50012;SDS011;35901;48.694;9.476;2023-07-22T12:59:29;2.40;;;2.20;;
50012;SDS011;35901;48.694;9.476;2023-07-22T13:01:55;2.43;;;2.27;;
50012;SDS011;35901;48.694;9.476;2023-07-22T13:04:23;2.90;;;2.30;;
50012;SDS011;35901;48.694;9.476;2023-07-22T13:06:49;2.20;;;2.10;;
50012;SDS011;35901;48.694;9.476;2023-07-22T13:09:17;2.47;;;2.10;;
50012;SDS011;35901;48.694;9.476;2023-07-22T13:11:43;2.30;;;2.10;;
50012;SDS011;35901;48.694;9.476;2023-07-22T13:14:10;2.57;;;2.20;;
50012;SDS011;35901;48.694;9.476;2023-07-22T13:16:36;2.67;;;2.10;;
50012;SDS011;35901;48.694;9.476;2023-07-22T13:19:02;3.27;;;2.00;;
50012;SDS011;35901;48.694;9.476;2023-07-22T13:21:28;4.17;;;3.87;;
50012;SDS011;35901;48.694;9.476;2023-07-22T13:23:55;2.20;;;2.00;;
50012;SDS011;35901;48.694;9.476;2023-07-22T13:26:21;3.00;;;2.80;;
50012;SDS011;35901;48.694;9.476;2023-07-22T13:28:47;4.67;;;4.27;;
50012;SDS011;35901;48.694;9.476;2023-07-22T13:31:13;2.57;;;2.40;;
50012;SDS011;35901;48.694;9.476;2023-07-22T13:33:39;2.40;;;2.20;;
50012;SDS011;35901;48.694;9.476;2023-07-22T13:36:05;2.42;;;2.22;;
50012;SDS011;35901;48.694;9.476;2023-07-22T13:38:31;2.42;;;2.22;;
50012;SDS011;35901;48.694;9.476;2023-07-22T13:40:58;2.20;;;2.10;;
50012;SDS011;35901;48.694;9.476;2023-07-22T13:43:24;2.63;;;2.20;;
50012;SDS011;35901;48.694;9.476;2023-07-22T13:45:50;2.42;;;2.22;;
50012;SDS011;35901;48.694;9.476;2023-07-22T13:48:16;3.03;;;2.22;;
50012;SDS011;35901;48.694;9.476;2023-07-22T13:50:41;3.72;;;2.60;;
50012;SDS011;35901;48.694;9.476;2023-07-22T13:53:07;3.47;;;2.28;;
50012;SDS011;35901;48.694;9.476;2023-07-22T13:55:33;2.60;;;2.40;;
50012;SDS011;35901;48.694;9.476;2023-07-22T13:57:59;2.70;;;2.50;;
50012;SDS011;35901;48.694;9.476;2023-07-22T14:00:24;2.77;;;2.57;;
50012;SDS011;35901;48.694;9.476;2023-07-22T14:02:50;2.50;;;2.13;;
50012;SDS011;35901;48.694;9.476;2023-07-22T14:05:16;2.70;;;2.50;;
50012;SDS011;35901;48.694;9.476;2023-07-22T14:07:42;2.80;;;2.47;;
50012;SDS011;35901;48.694;9.476;2023-07-22T14:10:08;3.13;;;2.63;;
50012;SDS011;35901;48.694;9.476;2023-07-22T14:12:35;3.23;;;2.87;;
50012;SDS011;35901;48.694;9.476;2023-07-22T14:15:01;3.17;;;2.97;;
50012;SDS011;35901;48.694;9.476;2023-07-22T14:17:29;3.47;;;2.73;;
50012;SDS011;35901;48.694;9.476;2023-07-22T14:19:57;2.53;;;2.27;;
50012;SDS011;35901;48.694;9.476;2023-07-22T14:22:23;3.17;;;2.97;;
50012;SDS011;35901;48.694;9.476;2023-07-22T14:24:49;3.77;;;3.13;;
50012;SDS011;35901;48.694;9.476;2023-07-22T14:27:15;3.10;;;2.80;;
50012;SDS011;35901;48.694;9.476;2023-07-22T14:29:40;3.10;;;2.70;;
50012;SDS011;35901;48.694;9.476;2023-07-22T14:32:06;3.50;;;3.20;;
50012;SDS011;35901;48.694;9.476;2023-07-22T14:34:33;3.30;;;3.00;;
50012;SDS011;35901;48.694;9.476;2023-07-22T14:36:59;3.07;;;2.80;;
50012;SDS011;35901;48.694;9.476;2023-07-22T14:39:25;3.20;;;3.00;;
50012;SDS011;35901;48.694;9.476;2023-07-22T14:41:51;3.37;;;2.60;;
50012;SDS011;35901;48.694;9.476;2023-07-22T14:44:18;3.70;;;3.37;;
50012;SDS011;35901;48.694;9.476;2023-07-22T14:46:43;3.27;;;3.00;;
50012;SDS011;35901;48.694;9.476;2023-07-22T14:49:09;3.90;;;3.40;;
50012;SDS011;35901;48.694;9.476;2023-07-22T14:51:35;3.30;;;3.00;;
50012;SDS011;35901;48.694;9.476;2023-07-22T14:54:02;4.10;;;3.33;;
50012;SDS011;35901;48.694;9.476;2023-07-22T14:56:27;3.53;;;3.03;;
50012;SDS011;35901;48.694;9.476;2023-07-22T14:58:53;3.80;;;3.50;;
50012;SDS011;35901;48.694;9.476;2023-07-22T15:01:20;3.42;;;3.17;;
50012;SDS011;35901;48.694;9.476;2023-07-22T15:03:46;4.55;;;3.55;;
50012;SDS011;35901;48.694;9.476;2023-07-22T15:06:12;3.85;;;3.50;;
50012;SDS011;35901;48.694;9.476;2023-07-22T15:08:38;4.60;;;3.80;;
50012;SDS011;35901;48.694;9.476;2023-07-22T15:11:08;3.63;;;3.33;;
50012;SDS011;35901;48.694;9.476;2023-07-22T15:13:34;3.72;;;3.42;;